sensor_id;sensor_type;location;lat;lon;timestamp;temperature;humidity
68844;DHT22;55850;51.244;6.824;2022-08-03T00:04:24;22.40;63.74
68844;DHT22;55850;51.244;6.824;2022-08-03T00:09:35;22.45;63.49
68844;DHT22;55850;51.244;6.824;2022-08-03T00:14:43;22.37;63.63
68844;DHT22;55850;51.244;6.824;2022-08-03T00:19:49;22.33;63.81
68844;DHT22;55850;51.244;6.824;2022-08-03T00:24:54;22.27;63.88
68844;DHT22;55850;51.244;6.824;2022-08-03T00:30:06;22.14;64.43
68844;DHT22;55850;51.244;6.824;2022-08-03T00:35:11;22.10;64.73
68844;DHT22;55850;51.244;6.824;2022-08-03T00:40:36;21.89;65.46
68844;DHT22;55850;51.244;6.824;2022-08-03T00:45:44;22.00;65.10
68844;DHT22;55850;51.244;6.824;2022-08-03T00:50:52;22.45;63.62
68844;DHT22;55850;51.244;6.824;2022-08-03T00:55:58;22.27;64.36
68844;DHT22;55850;51.244;6.824;2022-08-03T01:01:06;22.24;64.06
68844;DHT22;55850;51.244;6.824;2022-08-03T01:06:15;22.38;63.53
68844;DHT22;55850;51.244;6.824;2022-08-03T01:11:28;22.30;63.49
68844;DHT22;55850;51.244;6.824;2022-08-03T01:16:46;22.41;63.00
68844;DHT22;55850;51.244;6.824;2022-08-03T01:22:01;22.34;62.96
68844;DHT22;55850;51.244;6.824;2022-08-03T01:27:13;22.40;62.71
68844;DHT22;55850;51.244;6.824;2022-08-03T01:32:27;22.45;62.72
68844;DHT22;55850;51.244;6.824;2022-08-03T01:37:57;22.64;62.46
68844;DHT22;55850;51.244;6.824;2022-08-03T01:43:05;22.54;62.33
68844;DHT22;55850;51.244;6.824;2022-08-03T01:48:16;22.47;62.46
68844;DHT22;55850;51.244;6.824;2022-08-03T01:53:23;22.23;63.29
68844;DHT22;55850;51.244;6.824;2022-08-03T01:58:28;22.10;63.66
68844;DHT22;55850;51.244;6.824;2022-08-03T02:03:39;22.04;63.89
68844;DHT22;55850;51.244;6.824;2022-08-03T02:09:03;21.99;63.99
68844;DHT22;55850;51.244;6.824;2022-08-03T02:14:10;21.80;64.48
68844;DHT22;55850;51.244;6.824;2022-08-03T02:19:18;21.72;64.63
68844;DHT22;55850;51.244;6.824;2022-08-03T02:24:24;21.82;64.29
68844;DHT22;55850;51.244;6.824;2022-08-03T02:29:32;21.80;64.41
68844;DHT22;55850;51.244;6.824;2022-08-03T02:34:46;21.78;64.43
68844;DHT22;55850;51.244;6.824;2022-08-03T02:39:58;21.99;63.92
68844;DHT22;55850;51.244;6.824;2022-08-03T02:45:08;22.14;63.24
68844;DHT22;55850;51.244;6.824;2022-08-03T02:50:18;22.03;63.59
68844;DHT22;55850;51.244;6.824;2022-08-03T02:55:25;22.06;63.47
68844;DHT22;55850;51.244;6.824;2022-08-03T03:00:32;22.09;63.34
68844;DHT22;55850;51.244;6.824;2022-08-03T03:05:42;22.13;63.62
68844;DHT22;55850;51.244;6.824;2022-08-03T03:10:59;22.24;62.78
68844;DHT22;55850;51.244;6.824;2022-08-03T03:16:06;22.48;62.06
68844;DHT22;55850;51.244;6.824;2022-08-03T03:21:16;22.17;62.82
68844;DHT22;55850;51.244;6.824;2022-08-03T03:26:23;22.09;63.13
68844;DHT22;55850;51.244;6.824;2022-08-03T03:31:28;21.85;63.80
68844;DHT22;55850;51.244;6.824;2022-08-03T03:36:36;21.52;64.86
68844;DHT22;55850;51.244;6.824;2022-08-03T03:41:42;21.45;65.12
68844;DHT22;55850;51.244;6.824;2022-08-03T03:46:47;21.35;65.33
68844;DHT22;55850;51.244;6.824;2022-08-03T03:51:56;21.32;65.41
68844;DHT22;55850;51.244;6.824;2022-08-03T03:57:02;21.30;65.44
68844;DHT22;55850;51.244;6.824;2022-08-03T04:02:09;21.32;65.20
68844;DHT22;55850;51.244;6.824;2022-08-03T04:07:18;21.43;64.83
68844;DHT22;55850;51.244;6.824;2022-08-03T04:12:36;21.55;64.40
68844;DHT22;55850;51.244;6.824;2022-08-03T04:17:52;21.53;64.43
68844;DHT22;55850;51.244;6.824;2022-08-03T04:23:02;21.35;64.55
68844;DHT22;55850;51.244;6.824;2022-08-03T04:28:17;21.38;64.57
68844;DHT22;55850;51.244;6.824;2022-08-03T04:33:34;21.27;64.87
68844;DHT22;55850;51.244;6.824;2022-08-03T04:38:53;21.38;64.50
68844;DHT22;55850;51.244;6.824;2022-08-03T04:44:00;21.30;64.67
68844;DHT22;55850;51.244;6.824;2022-08-03T04:49:06;21.38;64.49
68844;DHT22;55850;51.244;6.824;2022-08-03T04:54:15;21.28;64.84
68844;DHT22;55850;51.244;6.824;2022-08-03T04:59:20;21.46;64.35
68844;DHT22;55850;51.244;6.824;2022-08-03T05:04:26;22.16;62.55
68844;DHT22;55850;51.244;6.824;2022-08-03T05:09:34;22.24;62.43
68844;DHT22;55850;51.244;6.824;2022-08-03T05:14:54;22.92;61.00
68844;DHT22;55850;51.244;6.824;2022-08-03T05:19:59;23.64;58.67
68844;DHT22;55850;51.244;6.824;2022-08-03T05:25:08;24.32;57.18
68844;DHT22;55850;51.244;6.824;2022-08-03T05:30:21;24.63;56.55
68844;DHT22;55850;51.244;6.824;2022-08-03T05:35:36;24.91;55.72
68844;DHT22;55850;51.244;6.824;2022-08-03T05:41:04;24.86;55.73
68844;DHT22;55850;51.244;6.824;2022-08-03T05:46:24;25.49;54.81
68844;DHT22;55850;51.244;6.824;2022-08-03T05:51:29;25.31;54.76
68844;DHT22;55850;51.244;6.824;2022-08-03T05:56:37;25.83;53.84
68844;DHT22;55850;51.244;6.824;2022-08-03T06:01:43;26.16;53.30
68844;DHT22;55850;51.244;6.824;2022-08-03T06:06:49;26.40;53.07
68844;DHT22;55850;51.244;6.824;2022-08-03T06:11:57;26.71;52.71
68844;DHT22;55850;51.244;6.824;2022-08-03T06:17:03;26.92;51.60
68844;DHT22;55850;51.244;6.824;2022-08-03T06:22:08;27.09;51.40
68844;DHT22;55850;51.244;6.824;2022-08-03T06:27:18;27.77;50.37
68844;DHT22;55850;51.244;6.824;2022-08-03T06:32:39;27.69;50.60
68844;DHT22;55850;51.244;6.824;2022-08-03T06:37:53;28.55;49.01
68844;DHT22;55850;51.244;6.824;2022-08-03T06:43:01;28.52;49.27
68844;DHT22;55850;51.244;6.824;2022-08-03T06:48:14;28.14;49.75
68844;DHT22;55850;51.244;6.824;2022-08-03T06:53:19;28.65;48.89
68844;DHT22;55850;51.244;6.824;2022-08-03T06:58:27;29.33;47.69
68844;DHT22;55850;51.244;6.824;2022-08-03T07:03:33;29.41;47.66
68844;DHT22;55850;51.244;6.824;2022-08-03T07:08:53;29.28;48.48
68844;DHT22;55850;51.244;6.824;2022-08-03T07:14:03;28.93;48.33
68844;DHT22;55850;51.244;6.824;2022-08-03T07:19:08;28.90;48.53
68844;DHT22;55850;51.244;6.824;2022-08-03T07:24:15;29.47;48.11
68844;DHT22;55850;51.244;6.824;2022-08-03T07:29:23;30.13;46.43
68844;DHT22;55850;51.244;6.824;2022-08-03T07:34:29;30.10;46.47
68844;DHT22;55850;51.244;6.824;2022-08-03T07:39:34;29.86;46.54
68844;DHT22;55850;51.244;6.824;2022-08-03T07:44:42;29.57;47.44
68844;DHT22;55850;51.244;6.824;2022-08-03T07:49:48;29.79;46.99
68844;DHT22;55850;51.244;6.824;2022-08-03T07:54:53;30.09;47.17
68844;DHT22;55850;51.244;6.824;2022-08-03T08:00:06;30.44;46.53
68844;DHT22;55850;51.244;6.824;2022-08-03T08:05:16;29.89;46.58
68844;DHT22;55850;51.244;6.824;2022-08-03T08:10:22;31.15;44.97
68844;DHT22;55850;51.244;6.824;2022-08-03T08:15:30;30.64;45.39
68844;DHT22;55850;51.244;6.824;2022-08-03T08:20:35;30.99;44.79
68844;DHT22;55850;51.244;6.824;2022-08-03T08:25:44;30.61;45.61
68844;DHT22;55850;51.244;6.824;2022-08-03T08:30:53;30.91;45.40
68844;DHT22;55850;51.244;6.824;2022-08-03T08:35:59;31.53;44.18
68844;DHT22;55850;51.244;6.824;2022-08-03T08:41:05;31.69;43.69
68844;DHT22;55850;51.244;6.824;2022-08-03T08:46:15;31.91;44.05
68844;DHT22;55850;51.244;6.824;2022-08-03T08:51:28;32.04;43.32
68844;DHT22;55850;51.244;6.824;2022-08-03T08:57:01;31.94;43.20
68844;DHT22;55850;51.244;6.824;2022-08-03T09:02:27;31.65;43.17
68844;DHT22;55850;51.244;6.824;2022-08-03T09:07:33;32.06;42.60
68844;DHT22;55850;51.244;6.824;2022-08-03T09:12:41;31.66;42.42
68844;DHT22;55850;51.244;6.824;2022-08-03T09:17:52;31.87;43.28
68844;DHT22;55850;51.244;6.824;2022-08-03T09:22:59;31.76;42.79
68844;DHT22;55850;51.244;6.824;2022-08-03T09:28:33;31.97;42.77
68844;DHT22;55850;51.244;6.824;2022-08-03T09:34:03;32.01;43.14
68844;DHT22;55850;51.244;6.824;2022-08-03T09:39:10;31.84;43.20
68844;DHT22;55850;51.244;6.824;2022-08-03T09:44:16;31.94;43.47
68844;DHT22;55850;51.244;6.824;2022-08-03T09:49:30;31.82;42.49
68844;DHT22;55850;51.244;6.824;2022-08-03T09:54:36;31.46;43.36
68844;DHT22;55850;51.244;6.824;2022-08-03T09:59:42;31.90;42.92
68844;DHT22;55850;51.244;6.824;2022-08-03T10:04:50;32.04;42.88
68844;DHT22;55850;51.244;6.824;2022-08-03T10:09:58;31.82;42.52
68844;DHT22;55850;51.244;6.824;2022-08-03T10:15:23;31.74;42.88
68844;DHT22;55850;51.244;6.824;2022-08-03T10:20:55;31.73;43.05
68844;DHT22;55850;51.244;6.824;2022-08-03T10:26:06;31.77;43.31
68844;DHT22;55850;51.244;6.824;2022-08-03T10:31:13;31.91;42.97
68844;DHT22;55850;51.244;6.824;2022-08-03T10:36:22;31.96;42.24
68844;DHT22;55850;51.244;6.824;2022-08-03T10:41:31;31.93;41.51
68844;DHT22;55850;51.244;6.824;2022-08-03T10:46:38;31.84;41.53
68844;DHT22;55850;51.244;6.824;2022-08-03T10:51:49;32.04;41.92
68844;DHT22;55850;51.244;6.824;2022-08-03T10:56:55;31.91;42.25
68844;DHT22;55850;51.244;6.824;2022-08-03T11:13:56;32.32;40.35
68844;DHT22;55850;51.244;6.824;2022-08-03T11:19:03;32.42;41.54
68844;DHT22;55850;51.244;6.824;2022-08-03T11:24:09;32.41;41.01
68844;DHT22;55850;51.244;6.824;2022-08-03T11:29:32;32.27;40.67
68844;DHT22;55850;51.244;6.824;2022-08-03T11:40:40;32.24;40.73
68844;DHT22;55850;51.244;6.824;2022-08-03T11:45:58;32.24;40.13
68844;DHT22;55850;51.244;6.824;2022-08-03T11:51:06;32.31;39.86
68844;DHT22;55850;51.244;6.824;2022-08-03T11:56:14;32.40;39.80
68844;DHT22;55850;51.244;6.824;2022-08-03T12:01:24;32.41;40.19
68844;DHT22;55850;51.244;6.824;2022-08-03T12:06:30;32.19;39.67
68844;DHT22;55850;51.244;6.824;2022-08-03T12:11:55;32.19;39.74
68844;DHT22;55850;51.244;6.824;2022-08-03T12:17:05;32.30;40.93
68844;DHT22;55850;51.244;6.824;2022-08-03T12:22:11;32.52;39.81
68844;DHT22;55850;51.244;6.824;2022-08-03T12:27:24;32.42;39.34
68844;DHT22;55850;51.244;6.824;2022-08-03T12:32:33;32.41;39.99
68844;DHT22;55850;51.244;6.824;2022-08-03T12:37:39;32.42;39.50
68844;DHT22;55850;51.244;6.824;2022-08-03T12:42:52;32.10;38.87
68844;DHT22;55850;51.244;6.824;2022-08-03T12:48:01;32.11;39.36
68844;DHT22;55850;51.244;6.824;2022-08-03T12:53:08;32.32;40.25
68844;DHT22;55850;51.244;6.824;2022-08-03T12:58:28;32.21;40.84
68844;DHT22;55850;51.244;6.824;2022-08-03T13:03:42;32.16;39.86
68844;DHT22;55850;51.244;6.824;2022-08-03T13:09:04;32.07;40.40
68844;DHT22;55850;51.244;6.824;2022-08-03T13:14:11;31.90;40.34
68844;DHT22;55850;51.244;6.824;2022-08-03T13:19:24;31.97;40.65
68844;DHT22;55850;51.244;6.824;2022-08-03T13:24:30;31.97;40.23
68844;DHT22;55850;51.244;6.824;2022-08-03T13:29:35;31.70;39.58
68844;DHT22;55850;51.244;6.824;2022-08-03T13:34:43;31.80;39.30
68844;DHT22;55850;51.244;6.824;2022-08-03T13:39:49;31.79;40.33
68844;DHT22;55850;51.244;6.824;2022-08-03T13:45:02;31.65;39.97
68844;DHT22;55850;51.244;6.824;2022-08-03T13:50:10;31.70;38.60
68844;DHT22;55850;51.244;6.824;2022-08-03T13:55:16;31.82;39.97
68844;DHT22;55850;51.244;6.824;2022-08-03T14:00:22;31.82;39.16
68844;DHT22;55850;51.244;6.824;2022-08-03T14:05:33;31.90;39.86
68844;DHT22;55850;51.244;6.824;2022-08-03T14:10:41;31.91;38.94
68844;DHT22;55850;51.244;6.824;2022-08-03T14:15:47;32.00;37.80
68844;DHT22;55850;51.244;6.824;2022-08-03T14:20:56;31.97;37.68
68844;DHT22;55850;51.244;6.824;2022-08-03T14:26:07;31.87;38.61
68844;DHT22;55850;51.244;6.824;2022-08-03T14:31:13;31.69;39.02
68844;DHT22;55850;51.244;6.824;2022-08-03T14:36:41;31.52;39.09
68844;DHT22;55850;51.244;6.824;2022-08-03T14:41:48;31.32;39.44
68844;DHT22;55850;51.244;6.824;2022-08-03T14:46:54;31.29;39.51
68844;DHT22;55850;51.244;6.824;2022-08-03T14:52:03;31.35;39.60
68844;DHT22;55850;51.244;6.824;2022-08-03T14:57:08;31.49;40.22
68844;DHT22;55850;51.244;6.824;2022-08-03T15:02:14;31.60;39.05
68844;DHT22;55850;51.244;6.824;2022-08-03T15:07:27;31.41;39.67
68844;DHT22;55850;51.244;6.824;2022-08-03T15:12:33;31.23;38.60
68844;DHT22;55850;51.244;6.824;2022-08-03T15:17:38;31.32;38.45
68844;DHT22;55850;51.244;6.824;2022-08-03T15:23:04;31.56;38.11
68844;DHT22;55850;51.244;6.824;2022-08-03T15:28:09;31.72;37.82
68844;DHT22;55850;51.244;6.824;2022-08-03T15:33:15;31.89;37.13
68844;DHT22;55850;51.244;6.824;2022-08-03T15:38:24;31.90;37.20
68844;DHT22;55850;51.244;6.824;2022-08-03T15:43:31;32.01;37.19
68844;DHT22;55850;51.244;6.824;2022-08-03T15:48:40;31.94;37.35
68844;DHT22;55850;51.244;6.824;2022-08-03T15:53:48;31.83;37.30
68844;DHT22;55850;51.244;6.824;2022-08-03T15:58:54;31.70;37.38
68844;DHT22;55850;51.244;6.824;2022-08-03T16:04:15;31.67;37.26
68844;DHT22;55850;51.244;6.824;2022-08-03T16:09:23;31.72;36.95
68844;DHT22;55850;51.244;6.824;2022-08-03T16:14:45;31.74;37.08
68844;DHT22;55850;51.244;6.824;2022-08-03T16:19:54;31.76;37.51
68844;DHT22;55850;51.244;6.824;2022-08-03T16:25:04;31.66;37.34
68844;DHT22;55850;51.244;6.824;2022-08-03T16:30:17;31.42;38.04
68844;DHT22;55850;51.244;6.824;2022-08-03T16:35:23;31.33;37.91
68844;DHT22;55850;51.244;6.824;2022-08-03T16:40:31;31.28;38.03
68844;DHT22;55850;51.244;6.824;2022-08-03T16:45:37;31.33;37.95
68844;DHT22;55850;51.244;6.824;2022-08-03T16:50:42;31.31;38.05
68844;DHT22;55850;51.244;6.824;2022-08-03T16:55:51;31.28;38.84
68844;DHT22;55850;51.244;6.824;2022-08-03T17:00:57;31.31;38.79
68844;DHT22;55850;51.244;6.824;2022-08-03T17:06:23;31.19;38.53
68844;DHT22;55850;51.244;6.824;2022-08-03T17:11:43;31.22;38.38
68844;DHT22;55850;51.244;6.824;2022-08-03T17:16:51;31.19;39.45
68844;DHT22;55850;51.244;6.824;2022-08-03T17:22:02;31.21;38.73
68844;DHT22;55850;51.244;6.824;2022-08-03T17:27:18;31.21;39.01
68844;DHT22;55850;51.244;6.824;2022-08-03T17:32:44;31.16;39.26
68844;DHT22;55850;51.244;6.824;2022-08-03T17:37:59;31.21;40.64
68844;DHT22;55850;51.244;6.824;2022-08-03T17:43:12;31.02;41.47
68844;DHT22;55850;51.244;6.824;2022-08-03T17:48:39;30.85;41.90
68844;DHT22;55850;51.244;6.824;2022-08-03T17:53:49;30.83;42.02
68844;DHT22;55850;51.244;6.824;2022-08-03T17:59:11;30.84;41.64
68844;DHT22;55850;51.244;6.824;2022-08-03T18:04:41;30.75;42.20
68844;DHT22;55850;51.244;6.824;2022-08-03T18:09:59;30.67;42.17
68844;DHT22;55850;51.244;6.824;2022-08-03T18:15:23;30.59;42.46
68844;DHT22;55850;51.244;6.824;2022-08-03T18:20:30;30.56;42.76
68844;DHT22;55850;51.244;6.824;2022-08-03T18:25:44;30.48;43.04
68844;DHT22;55850;51.244;6.824;2022-08-03T18:31:02;30.19;44.20
68844;DHT22;55850;51.244;6.824;2022-08-03T18:36:14;30.01;45.17
68844;DHT22;55850;51.244;6.824;2022-08-03T18:41:31;29.82;45.81
68844;DHT22;55850;51.244;6.824;2022-08-03T18:46:46;29.67;46.10
68844;DHT22;55850;51.244;6.824;2022-08-03T18:52:00;29.43;45.88
68844;DHT22;55850;51.244;6.824;2022-08-03T18:57:17;29.47;45.17
68844;DHT22;55850;51.244;6.824;2022-08-03T19:02:42;29.35;45.48
68844;DHT22;55850;51.244;6.824;2022-08-03T19:07:56;29.24;46.14
68844;DHT22;55850;51.244;6.824;2022-08-03T19:13:05;29.00;46.62
68844;DHT22;55850;51.244;6.824;2022-08-03T19:18:19;28.80;47.42
68844;DHT22;55850;51.244;6.824;2022-08-03T19:23:25;28.59;48.84
68844;DHT22;55850;51.244;6.824;2022-08-03T19:28:35;28.44;48.83
68844;DHT22;55850;51.244;6.824;2022-08-03T19:33:44;28.48;47.52
68844;DHT22;55850;51.244;6.824;2022-08-03T19:38:59;28.49;47.38
68844;DHT22;55850;51.244;6.824;2022-08-03T19:44:13;28.42;47.54
68844;DHT22;55850;51.244;6.824;2022-08-03T19:49:32;28.18;47.89
68844;DHT22;55850;51.244;6.824;2022-08-03T19:55:04;28.11;48.24
68844;DHT22;55850;51.244;6.824;2022-08-03T20:00:15;28.02;48.50
68844;DHT22;55850;51.244;6.824;2022-08-03T20:05:33;28.11;47.29
68844;DHT22;55850;51.244;6.824;2022-08-03T20:10:53;28.07;47.22
68844;DHT22;55850;51.244;6.824;2022-08-03T20:15:58;28.17;47.51
68844;DHT22;55850;51.244;6.824;2022-08-03T20:21:10;28.12;47.56
68844;DHT22;55850;51.244;6.824;2022-08-03T20:26:17;28.02;47.63
68844;DHT22;55850;51.244;6.824;2022-08-03T20:31:24;28.00;47.75
68844;DHT22;55850;51.244;6.824;2022-08-03T20:36:40;28.00;47.81
68844;DHT22;55850;51.244;6.824;2022-08-03T20:41:45;27.91;47.97
68844;DHT22;55850;51.244;6.824;2022-08-03T20:46:51;28.01;47.87
68844;DHT22;55850;51.244;6.824;2022-08-03T20:52:05;27.88;48.12
68844;DHT22;55850;51.244;6.824;2022-08-03T20:57:20;27.93;48.15
68844;DHT22;55850;51.244;6.824;2022-08-03T21:02:34;27.83;48.31
68844;DHT22;55850;51.244;6.824;2022-08-03T21:07:47;27.77;48.62
68844;DHT22;55850;51.244;6.824;2022-08-03T21:13:11;27.74;48.64
68844;DHT22;55850;51.244;6.824;2022-08-03T21:18:22;27.69;48.50
68844;DHT22;55850;51.244;6.824;2022-08-03T21:23:30;27.64;48.79
68844;DHT22;55850;51.244;6.824;2022-08-03T21:28:51;27.50;49.13
68844;DHT22;55850;51.244;6.824;2022-08-03T21:33:59;27.54;48.92
68844;DHT22;55850;51.244;6.824;2022-08-03T21:39:09;27.45;49.13
68844;DHT22;55850;51.244;6.824;2022-08-03T21:44:16;27.45;49.29
68844;DHT22;55850;51.244;6.824;2022-08-03T21:49:31;27.32;49.62
68844;DHT22;55850;51.244;6.824;2022-08-03T21:55:03;27.13;49.80
68844;DHT22;55850;51.244;6.824;2022-08-03T22:00:12;27.21;49.69
68844;DHT22;55850;51.244;6.824;2022-08-03T22:05:18;27.09;49.94
68844;DHT22;55850;51.244;6.824;2022-08-03T22:10:46;27.09;50.11
68844;DHT22;55850;51.244;6.824;2022-08-03T22:15:52;27.03;50.15
68844;DHT22;55850;51.244;6.824;2022-08-03T22:20:58;26.99;50.41
68844;DHT22;55850;51.244;6.824;2022-08-03T22:26:10;26.94;50.35
68844;DHT22;55850;51.244;6.824;2022-08-03T22:31:35;26.96;50.47
68844;DHT22;55850;51.244;6.824;2022-08-03T22:37:02;26.96;50.46
68844;DHT22;55850;51.244;6.824;2022-08-03T22:42:10;26.94;50.58
68844;DHT22;55850;51.244;6.824;2022-08-03T22:47:16;26.80;50.90
68844;DHT22;55850;51.244;6.824;2022-08-03T22:52:24;26.74;51.21
68844;DHT22;55850;51.244;6.824;2022-08-03T22:57:33;26.77;51.07
68844;DHT22;55850;51.244;6.824;2022-08-03T23:02:41;26.78;51.11
68844;DHT22;55850;51.244;6.824;2022-08-03T23:07:48;26.54;51.52
68844;DHT22;55850;51.244;6.824;2022-08-03T23:12:58;26.70;51.19
68844;DHT22;55850;51.244;6.824;2022-08-03T23:18:05;26.57;51.50
68844;DHT22;55850;51.244;6.824;2022-08-03T23:23:11;26.53;51.46
68844;DHT22;55850;51.244;6.824;2022-08-03T23:28:24;26.47;51.63
68844;DHT22;55850;51.244;6.824;2022-08-03T23:33:30;26.48;51.56
68844;DHT22;55850;51.244;6.824;2022-08-03T23:38:36;26.50;51.50
68844;DHT22;55850;51.244;6.824;2022-08-03T23:43:45;26.29;52.11
68844;DHT22;55850;51.244;6.824;2022-08-03T23:48:56;26.43;51.77
68844;DHT22;55850;51.244;6.824;2022-08-03T23:54:07;26.32;51.87
68844;DHT22;55850;51.244;6.824;2022-08-03T23:59:25;26.33;51.86
